sensor_id;sensor_type;location;lat;lon;timestamp;P1;durP1;ratioP1;P2;durP2;ratioP2
25327;SDS011;13279;51.300;12.394;2024-01-06T00:00:29;5.07;;;3.37;;
25327;SDS011;13279;51.300;12.394;2024-01-06T00:02:58;6.97;;;3.10;;
25327;SDS011;13279;51.300;12.394;2024-01-06T00:05:26;4.70;;;3.10;;
25327;SDS011;13279;51.300;12.394;2024-01-06T00:07:53;13.93;;;3.60;;
25327;SDS011;13279;51.300;12.394;2024-01-06T00:10:21;5.87;;;2.73;;
25327;SDS011;13279;51.300;12.394;2024-01-06T00:12:48;7.47;;;3.30;;
25327;SDS011;13279;51.300;12.394;2024-01-06T00:15:15;5.47;;;3.10;;
25327;SDS011;13279;51.300;12.394;2024-01-06T00:17:43;3.43;;;2.70;;
25327;SDS011;13279;51.300;12.394;2024-01-06T00:20:12;6.90;;;3.40;;
25327;SDS011;13279;51.300;12.394;2024-01-06T00:22:40;9.23;;;3.97;;
25327;SDS011;13279;51.300;12.394;2024-01-06T00:25:08;5.17;;;3.43;;
25327;SDS011;13279;51.300;12.394;2024-01-06T00:27:35;6.50;;;3.50;;
25327;SDS011;13279;51.300;12.394;2024-01-06T00:30:03;9.53;;;3.07;;
25327;SDS011;13279;51.300;12.394;2024-01-06T00:32:31;9.13;;;3.77;;
25327;SDS011;13279;51.300;12.394;2024-01-06T00:34:58;6.03;;;3.30;;
25327;SDS011;13279;51.300;12.394;2024-01-06T00:37:27;10.07;;;3.60;;
25327;SDS011;13279;51.300;12.394;2024-01-06T00:39:55;6.07;;;4.00;;
25327;SDS011;13279;51.300;12.394;2024-01-06T00:42:22;8.23;;;3.10;;
25327;SDS011;13279;51.300;12.394;2024-01-06T00:44:49;4.47;;;3.07;;
25327;SDS011;13279;51.300;12.394;2024-01-06T00:47:17;6.63;;;3.27;;
25327;SDS011;13279;51.300;12.394;2024-01-06T00:49:48;7.73;;;3.50;;
25327;SDS011;13279;51.300;12.394;2024-01-06T00:52:15;8.67;;;3.10;;
25327;SDS011;13279;51.300;12.394;2024-01-06T00:54:44;6.83;;;3.43;;
25327;SDS011;13279;51.300;12.394;2024-01-06T00:57:13;8.37;;;3.40;;
25327;SDS011;13279;51.300;12.394;2024-01-06T00:59:40;7.50;;;3.50;;
25327;SDS011;13279;51.300;12.394;2024-01-06T01:02:07;8.43;;;3.60;;
25327;SDS011;13279;51.300;12.394;2024-01-06T01:04:35;10.83;;;4.10;;
25327;SDS011;13279;51.300;12.394;2024-01-06T01:07:03;9.93;;;4.20;;
25327;SDS011;13279;51.300;12.394;2024-01-06T01:09:30;9.83;;;3.60;;
25327;SDS011;13279;51.300;12.394;2024-01-06T01:11:59;8.57;;;4.33;;
25327;SDS011;13279;51.300;12.394;2024-01-06T01:14:27;8.47;;;3.33;;
25327;SDS011;13279;51.300;12.394;2024-01-06T01:16:54;9.23;;;3.83;;
25327;SDS011;13279;51.300;12.394;2024-01-06T01:19:22;9.47;;;3.40;;
25327;SDS011;13279;51.300;12.394;2024-01-06T01:21:49;10.87;;;4.47;;
25327;SDS011;13279;51.300;12.394;2024-01-06T01:24:21;7.00;;;4.33;;
25327;SDS011;13279;51.300;12.394;2024-01-06T01:26:48;10.07;;;3.17;;
25327;SDS011;13279;51.300;12.394;2024-01-06T01:29:17;8.50;;;4.03;;
25327;SDS011;13279;51.300;12.394;2024-01-06T01:31:46;8.83;;;3.97;;
25327;SDS011;13279;51.300;12.394;2024-01-06T01:34:13;9.80;;;4.10;;
25327;SDS011;13279;51.300;12.394;2024-01-06T01:36:41;8.47;;;3.80;;
25327;SDS011;13279;51.300;12.394;2024-01-06T01:39:08;5.57;;;3.37;;
25327;SDS011;13279;51.300;12.394;2024-01-06T01:41:36;12.23;;;4.40;;
25327;SDS011;13279;51.300;12.394;2024-01-06T01:44:04;9.20;;;4.23;;
25327;SDS011;13279;51.300;12.394;2024-01-06T01:46:33;8.50;;;4.00;;
25327;SDS011;13279;51.300;12.394;2024-01-06T01:49:01;15.93;;;4.53;;
25327;SDS011;13279;51.300;12.394;2024-01-06T01:51:29;6.57;;;4.37;;
25327;SDS011;13279;51.300;12.394;2024-01-06T01:54:00;15.97;;;4.60;;
25327;SDS011;13279;51.300;12.394;2024-01-06T01:56:28;10.77;;;4.77;;
25327;SDS011;13279;51.300;12.394;2024-01-06T01:59:00;11.73;;;4.80;;
25327;SDS011;13279;51.300;12.394;2024-01-06T02:01:33;10.07;;;4.67;;
25327;SDS011;13279;51.300;12.394;2024-01-06T02:04:00;9.67;;;4.87;;
25327;SDS011;13279;51.300;12.394;2024-01-06T02:06:28;10.23;;;4.80;;
25327;SDS011;13279;51.300;12.394;2024-01-06T02:08:56;8.47;;;4.60;;
25327;SDS011;13279;51.300;12.394;2024-01-06T02:11:23;8.63;;;4.27;;
25327;SDS011;13279;51.300;12.394;2024-01-06T02:13:50;7.00;;;4.40;;
25327;SDS011;13279;51.300;12.394;2024-01-06T02:16:18;10.50;;;4.80;;
25327;SDS011;13279;51.300;12.394;2024-01-06T02:18:47;7.93;;;4.27;;
25327;SDS011;13279;51.300;12.394;2024-01-06T02:21:16;8.57;;;4.30;;
25327;SDS011;13279;51.300;12.394;2024-01-06T02:23:47;6.80;;;4.27;;
25327;SDS011;13279;51.300;12.394;2024-01-06T02:26:15;9.17;;;4.87;;
25327;SDS011;13279;51.300;12.394;2024-01-06T02:28:43;10.40;;;4.10;;
25327;SDS011;13279;51.300;12.394;2024-01-06T02:31:13;6.00;;;3.97;;
25327;SDS011;13279;51.300;12.394;2024-01-06T02:33:40;11.37;;;4.33;;
25327;SDS011;13279;51.300;12.394;2024-01-06T02:36:08;14.90;;;4.47;;
25327;SDS011;13279;51.300;12.394;2024-01-06T02:38:36;5.40;;;3.97;;
25327;SDS011;13279;51.300;12.394;2024-01-06T02:41:04;14.17;;;5.40;;
25327;SDS011;13279;51.300;12.394;2024-01-06T02:43:32;11.50;;;4.57;;
25327;SDS011;13279;51.300;12.394;2024-01-06T02:46:00;7.70;;;4.60;;
25327;SDS011;13279;51.300;12.394;2024-01-06T02:48:28;11.83;;;5.03;;
25327;SDS011;13279;51.300;12.394;2024-01-06T02:50:56;10.83;;;5.00;;
25327;SDS011;13279;51.300;12.394;2024-01-06T02:53:23;7.90;;;4.50;;
25327;SDS011;13279;51.300;12.394;2024-01-06T02:55:51;8.30;;;4.63;;
25327;SDS011;13279;51.300;12.394;2024-01-06T02:58:20;7.27;;;3.97;;
25327;SDS011;13279;51.300;12.394;2024-01-06T03:00:47;6.90;;;4.07;;
25327;SDS011;13279;51.300;12.394;2024-01-06T03:03:15;16.30;;;5.20;;
25327;SDS011;13279;51.300;12.394;2024-01-06T03:05:42;7.70;;;4.00;;
25327;SDS011;13279;51.300;12.394;2024-01-06T03:08:09;8.10;;;4.43;;
25327;SDS011;13279;51.300;12.394;2024-01-06T03:10:36;6.83;;;4.57;;
25327;SDS011;13279;51.300;12.394;2024-01-06T03:13:04;11.50;;;4.43;;
25327;SDS011;13279;51.300;12.394;2024-01-06T03:15:33;16.40;;;4.67;;
25327;SDS011;13279;51.300;12.394;2024-01-06T03:18:00;8.83;;;4.43;;
25327;SDS011;13279;51.300;12.394;2024-01-06T03:20:28;8.00;;;4.30;;
25327;SDS011;13279;51.300;12.394;2024-01-06T03:22:55;10.43;;;5.13;;
25327;SDS011;13279;51.300;12.394;2024-01-06T03:25:23;6.70;;;4.57;;
25327;SDS011;13279;51.300;12.394;2024-01-06T03:27:50;6.33;;;4.43;;
25327;SDS011;13279;51.300;12.394;2024-01-06T03:30:18;15.33;;;4.53;;
25327;SDS011;13279;51.300;12.394;2024-01-06T03:32:47;7.37;;;4.90;;
25327;SDS011;13279;51.300;12.394;2024-01-06T03:35:15;5.47;;;4.10;;
25327;SDS011;13279;51.300;12.394;2024-01-06T03:37:42;7.87;;;4.07;;
25327;SDS011;13279;51.300;12.394;2024-01-06T03:40:11;17.07;;;7.13;;
25327;SDS011;13279;51.300;12.394;2024-01-06T03:42:38;9.47;;;5.30;;
25327;SDS011;13279;51.300;12.394;2024-01-06T03:45:06;11.87;;;6.30;;
25327;SDS011;13279;51.300;12.394;2024-01-06T03:47:34;9.40;;;4.70;;
25327;SDS011;13279;51.300;12.394;2024-01-06T03:50:03;7.87;;;5.37;;
25327;SDS011;13279;51.300;12.394;2024-01-06T03:52:30;12.67;;;6.07;;
25327;SDS011;13279;51.300;12.394;2024-01-06T03:54:58;9.00;;;6.73;;
25327;SDS011;13279;51.300;12.394;2024-01-06T03:57:25;19.67;;;7.87;;
25327;SDS011;13279;51.300;12.394;2024-01-06T03:59:53;10.30;;;6.13;;
25327;SDS011;13279;51.300;12.394;2024-01-06T04:02:20;17.93;;;8.73;;
25327;SDS011;13279;51.300;12.394;2024-01-06T04:04:48;16.10;;;8.03;;
25327;SDS011;13279;51.300;12.394;2024-01-06T04:07:16;16.40;;;6.67;;
25327;SDS011;13279;51.300;12.394;2024-01-06T04:09:44;10.43;;;5.27;;
25327;SDS011;13279;51.300;12.394;2024-01-06T04:12:12;5.53;;;4.47;;
25327;SDS011;13279;51.300;12.394;2024-01-06T04:14:39;9.70;;;4.97;;
25327;SDS011;13279;51.300;12.394;2024-01-06T04:17:07;9.10;;;4.70;;
25327;SDS011;13279;51.300;12.394;2024-01-06T04:19:34;11.77;;;4.63;;
25327;SDS011;13279;51.300;12.394;2024-01-06T04:22:01;6.37;;;4.90;;
25327;SDS011;13279;51.300;12.394;2024-01-06T04:24:31;13.90;;;5.10;;
25327;SDS011;13279;51.300;12.394;2024-01-06T04:27:03;11.97;;;4.80;;
25327;SDS011;13279;51.300;12.394;2024-01-06T04:29:30;7.83;;;4.63;;
25327;SDS011;13279;51.300;12.394;2024-01-06T04:31:58;12.73;;;5.10;;
25327;SDS011;13279;51.300;12.394;2024-01-06T04:34:26;8.63;;;5.13;;
25327;SDS011;13279;51.300;12.394;2024-01-06T04:36:53;13.80;;;5.17;;
25327;SDS011;13279;51.300;12.394;2024-01-06T04:39:20;8.80;;;4.83;;
25327;SDS011;13279;51.300;12.394;2024-01-06T04:41:50;10.63;;;5.17;;
25327;SDS011;13279;51.300;12.394;2024-01-06T04:44:19;12.17;;;5.80;;
25327;SDS011;13279;51.300;12.394;2024-01-06T04:46:47;8.43;;;4.63;;
25327;SDS011;13279;51.300;12.394;2024-01-06T04:49:15;12.33;;;4.60;;
25327;SDS011;13279;51.300;12.394;2024-01-06T04:51:42;19.10;;;5.60;;
25327;SDS011;13279;51.300;12.394;2024-01-06T04:54:10;10.90;;;5.30;;
25327;SDS011;13279;51.300;12.394;2024-01-06T04:56:38;12.60;;;5.10;;
25327;SDS011;13279;51.300;12.394;2024-01-06T04:59:06;8.87;;;5.67;;
25327;SDS011;13279;51.300;12.394;2024-01-06T05:01:34;15.83;;;5.13;;
25327;SDS011;13279;51.300;12.394;2024-01-06T05:04:02;11.27;;;5.30;;
25327;SDS011;13279;51.300;12.394;2024-01-06T05:06:31;13.33;;;5.83;;
25327;SDS011;13279;51.300;12.394;2024-01-06T05:08:58;8.90;;;5.67;;
25327;SDS011;13279;51.300;12.394;2024-01-06T05:11:25;9.00;;;5.90;;
25327;SDS011;13279;51.300;12.394;2024-01-06T05:13:53;11.57;;;6.83;;
25327;SDS011;13279;51.300;12.394;2024-01-06T05:16:22;19.53;;;9.73;;
25327;SDS011;13279;51.300;12.394;2024-01-06T05:18:49;24.07;;;11.63;;
25327;SDS011;13279;51.300;12.394;2024-01-06T05:21:17;14.73;;;8.33;;
25327;SDS011;13279;51.300;12.394;2024-01-06T05:23:44;21.57;;;9.07;;
25327;SDS011;13279;51.300;12.394;2024-01-06T05:26:11;20.00;;;10.10;;
25327;SDS011;13279;51.300;12.394;2024-01-06T05:28:39;15.87;;;8.83;;
25327;SDS011;13279;51.300;12.394;2024-01-06T05:31:07;14.73;;;7.97;;
25327;SDS011;13279;51.300;12.394;2024-01-06T05:33:35;14.17;;;8.20;;
25327;SDS011;13279;51.300;12.394;2024-01-06T05:36:03;13.17;;;7.43;;
25327;SDS011;13279;51.300;12.394;2024-01-06T05:38:31;11.60;;;7.80;;
25327;SDS011;13279;51.300;12.394;2024-01-06T05:40:59;16.97;;;7.30;;
25327;SDS011;13279;51.300;12.394;2024-01-06T05:43:26;15.70;;;6.97;;
25327;SDS011;13279;51.300;12.394;2024-01-06T05:45:54;14.50;;;7.00;;
25327;SDS011;13279;51.300;12.394;2024-01-06T05:48:21;12.53;;;6.37;;
25327;SDS011;13279;51.300;12.394;2024-01-06T05:50:50;13.23;;;6.47;;
25327;SDS011;13279;51.300;12.394;2024-01-06T05:53:18;11.27;;;5.43;;
25327;SDS011;13279;51.300;12.394;2024-01-06T05:55:45;8.00;;;5.70;;
25327;SDS011;13279;51.300;12.394;2024-01-06T05:58:12;9.47;;;5.50;;
25327;SDS011;13279;51.300;12.394;2024-01-06T06:00:40;12.27;;;5.70;;
25327;SDS011;13279;51.300;12.394;2024-01-06T06:03:07;11.90;;;5.60;;
25327;SDS011;13279;51.300;12.394;2024-01-06T06:05:34;10.77;;;6.30;;
25327;SDS011;13279;51.300;12.394;2024-01-06T06:08:04;13.00;;;6.03;;
25327;SDS011;13279;51.300;12.394;2024-01-06T06:10:31;10.50;;;6.07;;
25327;SDS011;13279;51.300;12.394;2024-01-06T06:13:16;9.10;;;6.23;;
25327;SDS011;13279;51.300;12.394;2024-01-06T06:15:44;11.10;;;5.67;;
25327;SDS011;13279;51.300;12.394;2024-01-06T06:18:11;12.10;;;6.40;;
25327;SDS011;13279;51.300;12.394;2024-01-06T06:20:39;15.77;;;7.20;;
25327;SDS011;13279;51.300;12.394;2024-01-06T06:23:08;12.67;;;5.73;;
25327;SDS011;13279;51.300;12.394;2024-01-06T06:25:36;11.37;;;6.83;;
25327;SDS011;13279;51.300;12.394;2024-01-06T06:28:05;9.77;;;6.40;;
25327;SDS011;13279;51.300;12.394;2024-01-06T06:30:33;9.87;;;6.23;;
25327;SDS011;13279;51.300;12.394;2024-01-06T06:33:01;12.17;;;7.33;;
25327;SDS011;13279;51.300;12.394;2024-01-06T06:35:28;18.30;;;6.73;;
25327;SDS011;13279;51.300;12.394;2024-01-06T06:37:55;13.73;;;5.67;;
25327;SDS011;13279;51.300;12.394;2024-01-06T06:40:25;15.43;;;7.07;;
25327;SDS011;13279;51.300;12.394;2024-01-06T06:42:52;16.40;;;6.47;;
25327;SDS011;13279;51.300;12.394;2024-01-06T06:45:20;11.30;;;6.13;;
25327;SDS011;13279;51.300;12.394;2024-01-06T06:47:48;13.33;;;6.17;;
25327;SDS011;13279;51.300;12.394;2024-01-06T06:50:16;17.33;;;7.40;;
25327;SDS011;13279;51.300;12.394;2024-01-06T06:52:45;10.63;;;6.60;;
25327;SDS011;13279;51.300;12.394;2024-01-06T06:55:13;10.53;;;6.30;;
25327;SDS011;13279;51.300;12.394;2024-01-06T06:57:42;9.63;;;6.37;;
25327;SDS011;13279;51.300;12.394;2024-01-06T07:00:10;14.67;;;7.27;;
25327;SDS011;13279;51.300;12.394;2024-01-06T07:02:38;17.93;;;6.70;;
25327;SDS011;13279;51.300;12.394;2024-01-06T07:05:06;10.80;;;7.33;;
25327;SDS011;13279;51.300;12.394;2024-01-06T07:07:34;12.00;;;7.03;;
25327;SDS011;13279;51.300;12.394;2024-01-06T07:10:02;13.63;;;7.40;;
25327;SDS011;13279;51.300;12.394;2024-01-06T07:12:31;15.00;;;6.70;;
25327;SDS011;13279;51.300;12.394;2024-01-06T07:14:59;13.13;;;6.93;;
25327;SDS011;13279;51.300;12.394;2024-01-06T07:17:27;16.50;;;6.87;;
25327;SDS011;13279;51.300;12.394;2024-01-06T07:19:55;12.07;;;6.93;;
25327;SDS011;13279;51.300;12.394;2024-01-06T07:22:22;12.70;;;7.33;;
25327;SDS011;13279;51.300;12.394;2024-01-06T07:24:50;13.13;;;6.60;;
25327;SDS011;13279;51.300;12.394;2024-01-06T07:27:18;13.63;;;7.50;;
25327;SDS011;13279;51.300;12.394;2024-01-06T07:29:46;11.30;;;7.03;;
25327;SDS011;13279;51.300;12.394;2024-01-06T07:32:15;13.53;;;7.00;;
25327;SDS011;13279;51.300;12.394;2024-01-06T07:34:43;17.00;;;7.00;;
25327;SDS011;13279;51.300;12.394;2024-01-06T07:37:10;8.87;;;6.20;;
25327;SDS011;13279;51.300;12.394;2024-01-06T07:39:37;8.90;;;6.73;;
25327;SDS011;13279;51.300;12.394;2024-01-06T07:42:05;13.53;;;8.07;;
25327;SDS011;13279;51.300;12.394;2024-01-06T07:44:32;15.63;;;7.43;;
25327;SDS011;13279;51.300;12.394;2024-01-06T07:47:01;17.50;;;6.53;;
25327;SDS011;13279;51.300;12.394;2024-01-06T07:49:32;13.40;;;6.60;;
25327;SDS011;13279;51.300;12.394;2024-01-06T07:51:59;20.87;;;7.93;;
25327;SDS011;13279;51.300;12.394;2024-01-06T07:54:27;12.83;;;6.93;;
25327;SDS011;13279;51.300;12.394;2024-01-06T07:56:55;13.67;;;7.10;;
25327;SDS011;13279;51.300;12.394;2024-01-06T07:59:23;18.23;;;8.70;;
25327;SDS011;13279;51.300;12.394;2024-01-06T08:01:50;12.37;;;6.97;;
25327;SDS011;13279;51.300;12.394;2024-01-06T08:04:18;27.90;;;7.70;;
25327;SDS011;13279;51.300;12.394;2024-01-06T08:06:47;15.63;;;7.27;;
25327;SDS011;13279;51.300;12.394;2024-01-06T08:09:15;14.67;;;7.67;;
25327;SDS011;13279;51.300;12.394;2024-01-06T08:11:42;11.23;;;6.73;;
25327;SDS011;13279;51.300;12.394;2024-01-06T08:14:11;14.10;;;7.10;;
25327;SDS011;13279;51.300;12.394;2024-01-06T08:16:39;13.20;;;7.17;;
25327;SDS011;13279;51.300;12.394;2024-01-06T08:19:06;10.03;;;6.77;;
25327;SDS011;13279;51.300;12.394;2024-01-06T08:21:34;12.20;;;6.97;;
25327;SDS011;13279;51.300;12.394;2024-01-06T08:24:03;11.67;;;7.37;;
25327;SDS011;13279;51.300;12.394;2024-01-06T08:26:31;13.73;;;7.83;;
25327;SDS011;13279;51.300;12.394;2024-01-06T08:28:58;12.13;;;7.50;;
25327;SDS011;13279;51.300;12.394;2024-01-06T08:31:26;14.50;;;7.60;;
25327;SDS011;13279;51.300;12.394;2024-01-06T08:33:54;15.17;;;6.90;;
25327;SDS011;13279;51.300;12.394;2024-01-06T08:36:21;13.33;;;7.23;;
25327;SDS011;13279;51.300;12.394;2024-01-06T08:38:48;18.43;;;7.27;;
25327;SDS011;13279;51.300;12.394;2024-01-06T08:41:17;13.73;;;7.37;;
25327;SDS011;13279;51.300;12.394;2024-01-06T08:43:45;13.90;;;7.53;;
25327;SDS011;13279;51.300;12.394;2024-01-06T08:46:13;15.17;;;7.33;;
25327;SDS011;13279;51.300;12.394;2024-01-06T08:48:41;10.30;;;6.73;;
25327;SDS011;13279;51.300;12.394;2024-01-06T08:51:08;9.20;;;6.90;;
25327;SDS011;13279;51.300;12.394;2024-01-06T08:53:36;17.50;;;7.50;;
25327;SDS011;13279;51.300;12.394;2024-01-06T08:56:03;13.30;;;7.90;;
25327;SDS011;13279;51.300;12.394;2024-01-06T08:58:33;12.13;;;6.90;;
25327;SDS011;13279;51.300;12.394;2024-01-06T09:01:00;10.00;;;6.90;;
25327;SDS011;13279;51.300;12.394;2024-01-06T09:03:28;12.93;;;7.30;;
25327;SDS011;13279;51.300;12.394;2024-01-06T09:05:56;16.23;;;7.10;;
25327;SDS011;13279;51.300;12.394;2024-01-06T09:08:23;13.80;;;6.93;;
25327;SDS011;13279;51.300;12.394;2024-01-06T09:10:51;15.33;;;7.87;;
25327;SDS011;13279;51.300;12.394;2024-01-06T09:13:21;17.73;;;6.97;;
25327;SDS011;13279;51.300;12.394;2024-01-06T09:15:50;10.03;;;7.23;;
25327;SDS011;13279;51.300;12.394;2024-01-06T09:18:17;13.80;;;8.07;;
25327;SDS011;13279;51.300;12.394;2024-01-06T09:20:45;10.53;;;7.07;;
25327;SDS011;13279;51.300;12.394;2024-01-06T09:23:14;11.63;;;6.33;;
25327;SDS011;13279;51.300;12.394;2024-01-06T09:25:42;15.00;;;7.10;;
25327;SDS011;13279;51.300;12.394;2024-01-06T09:28:09;13.57;;;6.93;;
25327;SDS011;13279;51.300;12.394;2024-01-06T09:30:37;11.20;;;7.07;;
25327;SDS011;13279;51.300;12.394;2024-01-06T09:33:06;9.90;;;6.17;;
25327;SDS011;13279;51.300;12.394;2024-01-06T09:35:34;12.87;;;6.57;;
25327;SDS011;13279;51.300;12.394;2024-01-06T09:38:01;10.40;;;7.30;;
25327;SDS011;13279;51.300;12.394;2024-01-06T09:40:31;12.20;;;6.70;;
25327;SDS011;13279;51.300;12.394;2024-01-06T09:42:58;11.80;;;6.73;;
25327;SDS011;13279;51.300;12.394;2024-01-06T09:45:27;10.93;;;6.50;;
25327;SDS011;13279;51.300;12.394;2024-01-06T09:47:55;16.63;;;7.53;;
25327;SDS011;13279;51.300;12.394;2024-01-06T09:50:26;10.80;;;7.00;;
25327;SDS011;13279;51.300;12.394;2024-01-06T09:52:54;13.47;;;7.37;;
25327;SDS011;13279;51.300;12.394;2024-01-06T09:55:31;12.87;;;5.57;;
25327;SDS011;13279;51.300;12.394;2024-01-06T09:57:58;10.70;;;6.30;;
25327;SDS011;13279;51.300;12.394;2024-01-06T10:00:26;11.70;;;6.43;;
25327;SDS011;13279;51.300;12.394;2024-01-06T10:02:53;12.13;;;6.37;;
25327;SDS011;13279;51.300;12.394;2024-01-06T10:05:21;10.33;;;6.47;;
25327;SDS011;13279;51.300;12.394;2024-01-06T10:07:50;12.40;;;6.13;;
25327;SDS011;13279;51.300;12.394;2024-01-06T10:10:18;12.43;;;6.33;;
25327;SDS011;13279;51.300;12.394;2024-01-06T10:12:45;8.30;;;5.20;;
25327;SDS011;13279;51.300;12.394;2024-01-06T10:15:13;9.07;;;5.83;;
25327;SDS011;13279;51.300;12.394;2024-01-06T10:17:40;9.60;;;6.40;;
25327;SDS011;13279;51.300;12.394;2024-01-06T10:20:09;12.47;;;5.70;;
25327;SDS011;13279;51.300;12.394;2024-01-06T10:22:38;7.27;;;5.63;;
25327;SDS011;13279;51.300;12.394;2024-01-06T10:25:09;12.90;;;5.90;;
25327;SDS011;13279;51.300;12.394;2024-01-06T10:27:38;15.80;;;5.87;;
25327;SDS011;13279;51.300;12.394;2024-01-06T10:30:06;11.47;;;5.83;;
25327;SDS011;13279;51.300;12.394;2024-01-06T10:32:35;13.50;;;5.73;;
25327;SDS011;13279;51.300;12.394;2024-01-06T10:35:03;8.47;;;6.00;;
25327;SDS011;13279;51.300;12.394;2024-01-06T10:37:32;8.80;;;6.37;;
25327;SDS011;13279;51.300;12.394;2024-01-06T10:40:06;14.57;;;8.37;;
25327;SDS011;13279;51.300;12.394;2024-01-06T10:42:36;11.93;;;7.93;;
25327;SDS011;13279;51.300;12.394;2024-01-06T10:45:06;22.73;;;9.80;;
25327;SDS011;13279;51.300;12.394;2024-01-06T10:47:35;15.77;;;8.63;;
25327;SDS011;13279;51.300;12.394;2024-01-06T10:50:03;15.77;;;8.43;;
25327;SDS011;13279;51.300;12.394;2024-01-06T10:52:33;13.17;;;7.80;;
25327;SDS011;13279;51.300;12.394;2024-01-06T10:55:01;14.17;;;7.47;;
25327;SDS011;13279;51.300;12.394;2024-01-06T10:57:29;18.53;;;8.07;;
25327;SDS011;13279;51.300;12.394;2024-01-06T10:59:59;15.93;;;7.70;;
25327;SDS011;13279;51.300;12.394;2024-01-06T11:02:27;15.40;;;7.07;;
25327;SDS011;13279;51.300;12.394;2024-01-06T11:04:56;12.27;;;7.37;;
25327;SDS011;13279;51.300;12.394;2024-01-06T11:07:23;14.00;;;7.50;;
25327;SDS011;13279;51.300;12.394;2024-01-06T11:09:56;14.57;;;7.77;;
25327;SDS011;13279;51.300;12.394;2024-01-06T11:12:25;13.33;;;7.63;;
25327;SDS011;13279;51.300;12.394;2024-01-06T11:14:53;9.07;;;6.73;;
25327;SDS011;13279;51.300;12.394;2024-01-06T11:20:19;14.03;;;7.60;;
25327;SDS011;13279;51.300;12.394;2024-01-06T11:22:47;14.60;;;7.57;;
25327;SDS011;13279;51.300;12.394;2024-01-06T11:25:15;11.47;;;6.83;;
25327;SDS011;13279;51.300;12.394;2024-01-06T11:27:45;10.60;;;6.53;;
25327;SDS011;13279;51.300;12.394;2024-01-06T11:30:20;15.37;;;7.20;;
25327;SDS011;13279;51.300;12.394;2024-01-06T11:32:51;12.40;;;6.93;;
25327;SDS011;13279;51.300;12.394;2024-01-06T11:35:20;11.97;;;7.00;;
25327;SDS011;13279;51.300;12.394;2024-01-06T11:37:53;14.10;;;7.83;;
25327;SDS011;13279;51.300;12.394;2024-01-06T11:40:23;15.37;;;7.93;;
25327;SDS011;13279;51.300;12.394;2024-01-06T11:42:59;15.03;;;8.13;;
25327;SDS011;13279;51.300;12.394;2024-01-06T11:45:29;14.10;;;7.80;;
25327;SDS011;13279;51.300;12.394;2024-01-06T11:47:59;18.63;;;8.17;;
25327;SDS011;13279;51.300;12.394;2024-01-06T11:50:29;17.30;;;8.30;;
25327;SDS011;13279;51.300;12.394;2024-01-06T11:52:58;15.30;;;7.73;;
25327;SDS011;13279;51.300;12.394;2024-01-06T11:55:26;12.20;;;7.97;;
25327;SDS011;13279;51.300;12.394;2024-01-06T11:57:55;18.60;;;7.77;;
25327;SDS011;13279;51.300;12.394;2024-01-06T12:00:23;9.50;;;7.03;;
25327;SDS011;13279;51.300;12.394;2024-01-06T12:02:55;14.47;;;8.17;;
25327;SDS011;13279;51.300;12.394;2024-01-06T12:05:26;15.90;;;8.87;;
25327;SDS011;13279;51.300;12.394;2024-01-06T12:07:55;12.93;;;8.13;;
25327;SDS011;13279;51.300;12.394;2024-01-06T12:10:23;16.30;;;8.70;;
25327;SDS011;13279;51.300;12.394;2024-01-06T12:12:55;21.70;;;7.87;;
25327;SDS011;13279;51.300;12.394;2024-01-06T12:15:25;12.07;;;8.70;;
25327;SDS011;13279;51.300;12.394;2024-01-06T12:17:52;12.57;;;7.93;;
25327;SDS011;13279;51.300;12.394;2024-01-06T12:20:21;14.87;;;8.60;;
25327;SDS011;13279;51.300;12.394;2024-01-06T12:22:51;15.30;;;8.63;;
25327;SDS011;13279;51.300;12.394;2024-01-06T12:25:20;14.93;;;7.90;;
25327;SDS011;13279;51.300;12.394;2024-01-06T12:27:48;16.30;;;8.93;;
25327;SDS011;13279;51.300;12.394;2024-01-06T12:30:17;17.63;;;8.27;;
25327;SDS011;13279;51.300;12.394;2024-01-06T12:32:46;19.50;;;8.70;;
25327;SDS011;13279;51.300;12.394;2024-01-06T12:35:16;14.87;;;8.90;;
25327;SDS011;13279;51.300;12.394;2024-01-06T12:37:44;17.93;;;10.53;;
25327;SDS011;13279;51.300;12.394;2024-01-06T12:40:13;20.20;;;8.97;;
25327;SDS011;13279;51.300;12.394;2024-01-06T12:42:42;14.90;;;9.10;;
25327;SDS011;13279;51.300;12.394;2024-01-06T12:45:10;17.40;;;9.10;;
25327;SDS011;13279;51.300;12.394;2024-01-06T12:47:38;22.80;;;9.63;;
25327;SDS011;13279;51.300;12.394;2024-01-06T12:50:07;17.77;;;10.27;;
25327;SDS011;13279;51.300;12.394;2024-01-06T12:52:34;16.20;;;9.30;;
25327;SDS011;13279;51.300;12.394;2024-01-06T12:55:04;16.13;;;10.10;;
25327;SDS011;13279;51.300;12.394;2024-01-06T12:57:34;19.07;;;10.73;;
25327;SDS011;13279;51.300;12.394;2024-01-06T13:00:03;21.90;;;12.27;;
25327;SDS011;13279;51.300;12.394;2024-01-06T13:02:34;20.17;;;11.43;;
25327;SDS011;13279;51.300;12.394;2024-01-06T13:05:01;25.57;;;12.50;;
25327;SDS011;13279;51.300;12.394;2024-01-06T13:07:28;26.40;;;12.83;;
25327;SDS011;13279;51.300;12.394;2024-01-06T13:09:56;24.93;;;13.53;;
25327;SDS011;13279;51.300;12.394;2024-01-06T13:12:25;34.27;;;14.77;;
25327;SDS011;13279;51.300;12.394;2024-01-06T13:14:56;32.47;;;14.77;;
25327;SDS011;13279;51.300;12.394;2024-01-06T13:17:24;29.43;;;13.83;;
25327;SDS011;13279;51.300;12.394;2024-01-06T13:19:51;26.83;;;14.03;;
25327;SDS011;13279;51.300;12.394;2024-01-06T13:22:19;30.17;;;14.63;;
25327;SDS011;13279;51.300;12.394;2024-01-06T13:24:49;30.00;;;14.47;;
25327;SDS011;13279;51.300;12.394;2024-01-06T13:27:17;37.73;;;16.50;;
25327;SDS011;13279;51.300;12.394;2024-01-06T13:29:45;34.27;;;16.00;;
25327;SDS011;13279;51.300;12.394;2024-01-06T13:32:15;34.30;;;15.70;;
25327;SDS011;13279;51.300;12.394;2024-01-06T13:34:44;33.50;;;16.00;;
25327;SDS011;13279;51.300;12.394;2024-01-06T13:37:12;37.23;;;16.43;;
25327;SDS011;13279;51.300;12.394;2024-01-06T13:39:39;33.27;;;17.37;;
25327;SDS011;13279;51.300;12.394;2024-01-06T13:42:07;40.37;;;17.77;;
25327;SDS011;13279;51.300;12.394;2024-01-06T13:44:34;36.27;;;16.93;;
25327;SDS011;13279;51.300;12.394;2024-01-06T13:47:01;43.93;;;18.10;;
25327;SDS011;13279;51.300;12.394;2024-01-06T13:49:31;41.90;;;17.90;;
25327;SDS011;13279;51.300;12.394;2024-01-06T13:51:58;41.20;;;18.60;;
25327;SDS011;13279;51.300;12.394;2024-01-06T13:54:26;46.20;;;18.47;;
25327;SDS011;13279;51.300;12.394;2024-01-06T13:56:54;42.40;;;18.53;;
25327;SDS011;13279;51.300;12.394;2024-01-06T13:59:21;49.27;;;20.30;;
25327;SDS011;13279;51.300;12.394;2024-01-06T14:01:49;42.57;;;19.23;;
25327;SDS011;13279;51.300;12.394;2024-01-06T14:04:17;49.53;;;19.53;;
25327;SDS011;13279;51.300;12.394;2024-01-06T14:06:45;53.53;;;19.60;;
25327;SDS011;13279;51.300;12.394;2024-01-06T14:09:19;50.87;;;21.40;;
25327;SDS011;13279;51.300;12.394;2024-01-06T14:11:47;51.57;;;21.47;;
25327;SDS011;13279;51.300;12.394;2024-01-06T14:14:14;44.83;;;19.70;;
25327;SDS011;13279;51.300;12.394;2024-01-06T14:16:42;46.17;;;20.07;;
25327;SDS011;13279;51.300;12.394;2024-01-06T14:19:12;43.80;;;19.23;;
25327;SDS011;13279;51.300;12.394;2024-01-06T14:21:39;47.53;;;20.43;;
25327;SDS011;13279;51.300;12.394;2024-01-06T14:24:08;44.27;;;19.33;;
25327;SDS011;13279;51.300;12.394;2024-01-06T14:26:35;48.53;;;21.90;;
25327;SDS011;13279;51.300;12.394;2024-01-06T14:29:04;57.93;;;21.23;;
25327;SDS011;13279;51.300;12.394;2024-01-06T14:31:32;52.13;;;22.10;;